createdAt,value
2023-01-12T00:02:12.473Z,100156.41
2023-01-12T00:04:45.014Z,100128.50
2023-01-12T00:07:18.320Z,100137.09
2023-01-12T00:09:50.271Z,100144.09
2023-01-12T00:12:22.298Z,100164.03
2023-01-12T00:14:54.295Z,100119.94
2023-01-12T00:17:26.263Z,100156.41
2023-01-12T00:19:58.278Z,100148.34
2023-01-12T00:22:30.216Z,100175.56
2023-01-12T00:25:02.161Z,100152.72
2023-01-12T00:27:34.109Z,100158.91
2023-01-12T00:30:08.023Z,100137.72
2023-01-12T00:32:39.983Z,100161.19
2023-01-12T00:35:11.968Z,100168.34
2023-01-12T00:37:43.898Z,100165.00
2023-01-12T00:40:16.977Z,100141.19
2023-01-12T00:43:07.459Z,100153.00
2023-01-12T00:45:39.378Z,100141.63
2023-01-12T00:48:13.103Z,100164.81
2023-01-12T00:50:46.784Z,100145.56
2023-01-12T00:53:18.801Z,100144.44
2023-01-12T00:55:50.714Z,100164.88
2023-01-12T00:58:22.705Z,100145.44
2023-01-12T01:00:55.012Z,100154.81
2023-01-12T01:03:27.863Z,100146.47
2023-01-12T01:06:07.928Z,100155.34
2023-01-12T01:08:39.876Z,100154.59
2023-01-12T01:11:13.550Z,100168.63
2023-01-12T01:13:45.905Z,100168.06
2023-01-12T01:16:18.473Z,100158.97
2023-01-12T01:18:50.449Z,100139.75
2023-01-12T01:21:22.664Z,100127.72
2023-01-12T01:23:54.735Z,100152.50
2023-01-12T01:26:26.977Z,100170.59
2023-01-12T01:28:59.039Z,100161.28
2023-01-12T01:31:31.196Z,100141.47
2023-01-12T01:34:03.462Z,100175.75
2023-01-12T01:36:35.446Z,100166.34
2023-01-12T01:39:07.395Z,100142.44
2023-01-12T01:41:39.709Z,100162.91
2023-01-12T01:44:30.638Z,100188.91
2023-01-12T01:47:17.916Z,100179.38
2023-01-12T01:49:54.505Z,100181.97
2023-01-12T01:52:33.197Z,100114.69
2023-01-12T01:55:08.320Z,100186.19
2023-01-12T01:57:49.883Z,100179.47
2023-01-12T02:00:23.384Z,100161.75
2023-01-12T02:02:56.213Z,100153.41
2023-01-12T02:05:29.169Z,100180.97
2023-01-12T02:08:24.182Z,100180.09
2023-01-12T02:10:58.480Z,100174.16
2023-01-12T02:13:49.926Z,100153.00
2023-01-12T02:16:29.455Z,100173.28
2023-01-12T02:19:48.893Z,100165.91
2023-01-12T02:22:39.425Z,100153.41
2023-01-12T02:25:37.864Z,100176.19
2023-01-12T02:28:31.234Z,100180.50
2023-01-12T02:31:40.761Z,100181.25
2023-01-12T02:34:33.891Z,100186.47
2023-01-12T02:37:20.255Z,100189.03
2023-01-12T02:40:37.818Z,100184.69
2023-01-12T02:43:17.190Z,100157.78
2023-01-12T02:46:12.187Z,100158.91
2023-01-12T02:48:53.077Z,100191.25
2023-01-12T02:51:35.237Z,100189.47
2023-01-12T02:54:16.441Z,100166.25
2023-01-12T02:56:52.360Z,100199.50
2023-01-12T02:59:53.823Z,100187.03
2023-01-12T03:02:28.095Z,100185.56
2023-01-12T03:05:00.040Z,100193.75
2023-01-12T03:07:47.373Z,100196.63
2023-01-12T03:10:28.008Z,100209.88
2023-01-12T03:13:06.426Z,100206.91
2023-01-12T03:15:46.179Z,100194.19
2023-01-12T03:18:47.029Z,100205.97
2023-01-12T03:21:18.922Z,100205.44
2023-01-12T03:24:01.357Z,100195.22
2023-01-12T03:26:37.539Z,100187.38
2023-01-12T03:29:09.495Z,100201.53
2023-01-12T03:31:42.645Z,100193.22
2023-01-12T03:34:15.137Z,100181.34
2023-01-12T03:37:10.255Z,100189.91
2023-01-12T03:40:01.417Z,100183.47
2023-01-12T03:43:07.094Z,100192.50
2023-01-12T03:46:01.907Z,100192.59
2023-01-12T03:48:46.952Z,100193.19
2023-01-12T03:51:26.965Z,100197.28
2023-01-12T03:53:59.808Z,100186.03
2023-01-12T03:56:35.481Z,100199.75
2023-01-12T03:59:09.874Z,100158.75
2023-01-12T04:01:43.662Z,100181.94
2023-01-12T04:04:16.075Z,100196.81
2023-01-12T04:06:48.210Z,100167.69
2023-01-12T04:09:20.386Z,100183.91
2023-01-12T04:12:10.474Z,100151.66
2023-01-12T04:14:47.821Z,100191.59
2023-01-12T04:17:24.528Z,100172.72
2023-01-12T04:19:56.501Z,100186.28
2023-01-12T04:22:43.368Z,100208.41
2023-01-12T04:25:20.740Z,100191.06
2023-01-12T04:28:01.979Z,100210.31
2023-01-12T04:30:35.370Z,100206.56
2023-01-12T04:33:08.441Z,100220.31
2023-01-12T04:35:40.632Z,100206.84
2023-01-12T04:38:12.505Z,100214.28
2023-01-12T04:40:44.471Z,100209.75
2023-01-12T04:43:16.851Z,100192.19
2023-01-12T04:45:48.860Z,100201.84
2023-01-12T04:48:20.869Z,100228.44
2023-01-12T04:50:53.337Z,100219.66
2023-01-12T04:53:25.436Z,100222.06
2023-01-12T04:55:57.744Z,100212.91
2023-01-12T04:58:29.754Z,100221.25
2023-01-12T05:01:13.434Z,100222.16
2023-01-12T05:03:45.991Z,100207.00
2023-01-12T05:06:18.008Z,100200.22
2023-01-12T05:09:08.835Z,100196.59
2023-01-12T05:11:40.616Z,100231.34
2023-01-12T05:14:13.172Z,100207.63
2023-01-12T05:16:45.205Z,100239.97
2023-01-12T05:19:17.232Z,100230.06
2023-01-12T05:21:49.254Z,100219.97
2023-01-12T05:24:21.217Z,100233.16
2023-01-12T05:26:53.173Z,100218.84
2023-01-12T05:29:25.143Z,100207.94
2023-01-12T05:31:57.236Z,100174.91
2023-01-12T05:34:29.176Z,100229.44
2023-01-12T05:37:01.284Z,100205.53
2023-01-12T05:39:33.217Z,100217.72
2023-01-12T05:42:24.012Z,100215.72
2023-01-12T05:44:55.853Z,100224.22
2023-01-12T05:47:27.784Z,100240.88
2023-01-12T05:49:59.831Z,100237.94
2023-01-12T05:52:31.843Z,100234.88
2023-01-12T05:55:04.443Z,100227.16
2023-01-12T05:57:36.404Z,100227.13
2023-01-12T06:00:09.164Z,100231.63
2023-01-12T06:02:41.129Z,100201.66
2023-01-12T06:05:13.371Z,100254.31
2023-01-12T06:07:45.350Z,100250.13
2023-01-12T06:10:17.751Z,100255.13
2023-01-12T06:13:11.466Z,100266.88
2023-01-12T06:15:43.449Z,100259.88
2023-01-12T06:18:15.454Z,100259.28
2023-01-12T06:20:47.394Z,100262.06
2023-01-12T06:23:19.369Z,100247.00
2023-01-12T06:25:51.294Z,100236.94
2023-01-12T06:28:23.410Z,100269.66
2023-01-12T06:30:57.213Z,100268.59
2023-01-12T06:33:29.711Z,100282.09
2023-01-12T06:36:02.058Z,100245.88
2023-01-12T06:38:37.807Z,100274.59
2023-01-12T06:41:30.964Z,100272.75
2023-01-12T06:44:02.942Z,100252.75
2023-01-12T06:46:34.969Z,100268.69
2023-01-12T06:49:06.925Z,100260.88
2023-01-12T06:51:38.878Z,100289.44
2023-01-12T06:54:10.975Z,100274.22
2023-01-12T06:56:42.958Z,100214.16
2023-01-12T06:59:15.008Z,100257.31
2023-01-12T07:01:47.149Z,100293.38
2023-01-12T07:04:19.401Z,100273.16
2023-01-12T07:06:55.570Z,100276.25
2023-01-12T07:09:27.505Z,100278.75
2023-01-12T07:11:59.614Z,100273.50
2023-01-12T07:14:31.954Z,100288.28
2023-01-12T07:17:04.008Z,100274.19
2023-01-12T07:19:35.952Z,100298.44
2023-01-12T07:22:08.127Z,100279.44
2023-01-12T07:24:40.121Z,100294.28
2023-01-12T07:27:12.048Z,100283.38
2023-01-12T07:29:44.040Z,100299.56
2023-01-12T07:32:16.049Z,100293.91
2023-01-12T07:34:47.946Z,100295.72
2023-01-12T07:37:19.967Z,100300.19
2023-01-12T07:39:51.928Z,100299.72
2023-01-12T07:42:23.854Z,100324.59
2023-01-12T07:44:55.869Z,100303.66
2023-01-12T07:47:28.417Z,100310.44
2023-01-12T07:50:00.350Z,100326.31
2023-01-12T07:52:32.314Z,100343.66
2023-01-12T07:55:04.651Z,100293.22
2023-01-12T07:57:37.631Z,100340.50
2023-01-12T08:00:10.411Z,100347.84
2023-01-12T08:02:42.408Z,100317.44
2023-01-12T08:05:14.356Z,100296.97
2023-01-12T08:07:46.652Z,100318.41
2023-01-12T08:10:18.791Z,100335.06
2023-01-12T08:12:51.558Z,100329.81
2023-01-12T08:15:25.557Z,100352.31
2023-01-12T08:18:05.857Z,100345.44
2023-01-12T08:20:38.210Z,100348.91
2023-01-12T08:23:21.275Z,100334.44
2023-01-12T08:25:58.813Z,100353.41
2023-01-12T08:28:43.616Z,100361.63
2023-01-12T08:33:53.524Z,100370.78
2023-01-12T08:36:26.679Z,100365.41
2023-01-12T08:38:58.864Z,100352.31
2023-01-12T08:41:34.899Z,100380.78
2023-01-12T08:44:11.217Z,100380.59
2023-01-12T08:46:48.379Z,100384.75
2023-01-12T08:49:24.529Z,100393.78
2023-01-12T08:51:57.029Z,100389.25
2023-01-12T08:54:29.144Z,100387.03
2023-01-12T08:57:01.113Z,100383.72
2023-01-12T08:59:33.194Z,100387.03
2023-01-12T09:02:06.030Z,100390.81
2023-01-12T09:04:40.526Z,100390.91
2023-01-12T09:07:13.062Z,100378.00
2023-01-12T09:09:44.998Z,100369.81
2023-01-12T09:12:17.017Z,100375.72
2023-01-12T09:14:49.349Z,100349.06
2023-01-12T09:17:23.340Z,100348.47
2023-01-12T09:19:55.301Z,100333.66
2023-01-12T09:22:28.977Z,100346.13
2023-01-12T09:25:00.940Z,100361.34
2023-01-12T09:27:32.957Z,100341.03
2023-01-12T09:30:06.913Z,100323.38
2023-01-12T09:32:38.868Z,100343.63
2023-01-12T09:35:10.785Z,100345.16
2023-01-12T09:37:44.080Z,100354.91
2023-01-12T09:40:16.878Z,100354.41
2023-01-12T09:43:10.307Z,100345.63
2023-01-12T09:46:03.090Z,100341.13
2023-01-12T09:48:35.024Z,100337.09
2023-01-12T09:51:23.650Z,100334.09
2023-01-12T09:53:55.730Z,100329.09
2023-01-12T09:56:52.711Z,100335.00
2023-01-12T09:59:52.001Z,100332.69
2023-01-12T10:02:26.288Z,100310.78
2023-01-12T10:04:58.779Z,100298.28
2023-01-12T10:07:30.718Z,100315.94
2023-01-12T10:10:02.715Z,100325.03
2023-01-12T10:12:43.272Z,100328.09
2023-01-12T10:15:45.171Z,100313.25
2023-01-12T10:18:31.142Z,100309.72
2023-01-12T10:21:03.258Z,100300.41
2023-01-12T10:23:35.218Z,100310.00
2023-01-12T10:26:23.495Z,100298.69
2023-01-12T10:28:56.604Z,100291.59
2023-01-12T10:31:28.634Z,100276.53
2023-01-12T10:34:03.638Z,100304.34
2023-01-12T10:36:43.737Z,100301.69
2023-01-12T10:39:35.736Z,100298.00
2023-01-12T10:42:10.576Z,100299.09
2023-01-12T10:44:42.529Z,100280.63
2023-01-12T10:47:18.621Z,100299.25
2023-01-12T10:50:19.206Z,100285.22
2023-01-12T10:53:01.474Z,100285.16
2023-01-12T10:55:40.043Z,100290.53
2023-01-12T10:58:26.242Z,100291.00
2023-01-12T11:00:58.982Z,100297.03
2023-01-12T11:03:32.693Z,100300.28
2023-01-12T11:06:33.307Z,100288.56
2023-01-12T11:09:23.159Z,100274.81
2023-01-12T11:12:00.752Z,100279.16
2023-01-12T11:14:38.339Z,100268.06
2023-01-12T11:17:37.206Z,100282.44
2023-01-12T11:20:18.257Z,100255.03
2023-01-12T11:22:55.056Z,100261.78
2023-01-12T11:25:30.754Z,100241.63
2023-01-12T11:28:12.495Z,100226.56
2023-01-12T11:30:52.782Z,100266.03
2023-01-12T11:33:44.624Z,100243.78
2023-01-12T11:36:23.000Z,100219.06
2023-01-12T11:39:02.448Z,100234.66
2023-01-12T11:41:34.773Z,100249.88
2023-01-12T11:44:26.899Z,100229.84
2023-01-12T11:47:13.372Z,100222.09
2023-01-12T11:50:08.901Z,100213.03
2023-01-12T11:52:41.282Z,100231.59
2023-01-12T11:55:16.412Z,100230.03
2023-01-12T11:58:08.771Z,100234.56
2023-01-12T12:01:09.786Z,100223.56
2023-01-12T12:04:20.557Z,100229.47
2023-01-12T12:07:05.987Z,100231.16
2023-01-12T12:10:04.049Z,100228.47
2023-01-12T12:13:00.399Z,100229.94
2023-01-12T12:15:35.371Z,100228.84
2023-01-12T12:18:34.524Z,100232.53
2023-01-12T12:21:24.402Z,100231.25
2023-01-12T12:24:10.257Z,100221.63
2023-01-12T12:26:48.503Z,100203.72
2023-01-12T12:29:35.717Z,100211.19
2023-01-12T12:32:28.858Z,100205.38
2023-01-12T12:35:31.465Z,100188.94
2023-01-12T12:38:09.344Z,100189.31
2023-01-12T12:41:23.000Z,100178.13
2023-01-12T12:44:43.211Z,100177.44
2023-01-12T12:47:42.246Z,100179.25
2023-01-12T12:50:35.886Z,100186.63
2023-01-12T12:53:51.299Z,100186.63
2023-01-12T12:56:26.682Z,100183.50
2023-01-12T12:59:03.378Z,100173.53
2023-01-12T13:01:39.867Z,100179.72
2023-01-12T13:04:13.226Z,100172.97
2023-01-12T13:06:48.720Z,100164.50
2023-01-12T13:09:20.650Z,100188.13
2023-01-12T13:12:19.005Z,100191.28
2023-01-12T13:15:37.099Z,100195.78
2023-01-12T13:18:43.163Z,100168.84
2023-01-12T13:21:27.055Z,100186.19
2023-01-12T13:24:11.578Z,100185.19
2023-01-12T13:26:45.200Z,100184.22
2023-01-12T13:29:29.250Z,100183.88
2023-01-12T13:32:40.653Z,100173.91
2023-01-12T13:35:33.865Z,100182.41
2023-01-12T13:38:43.960Z,100173.19
2023-01-12T13:41:51.816Z,100176.69
2023-01-12T13:44:30.041Z,100175.94
2023-01-12T13:47:08.424Z,100179.44
2023-01-12T13:49:48.172Z,100175.22
2023-01-12T13:52:27.722Z,100174.72
2023-01-12T13:55:00.358Z,100145.00
2023-01-12T13:57:32.571Z,100170.13
2023-01-12T14:00:19.428Z,100165.03
2023-01-12T14:02:52.942Z,100154.31
2023-01-12T14:05:46.812Z,100155.06
2023-01-12T14:09:05.339Z,100132.09
2023-01-12T14:12:01.492Z,100147.97
2023-01-12T14:15:23.307Z,100148.44
2023-01-12T14:18:07.489Z,100147.94
2023-01-12T14:20:49.102Z,100131.19
2023-01-12T14:23:26.817Z,100155.66
2023-01-12T14:26:11.120Z,100148.91
2023-01-12T14:28:48.543Z,100129.47
2023-01-12T14:31:35.739Z,100132.38
2023-01-12T14:34:32.866Z,100130.91
2023-01-12T14:37:17.973Z,100137.41
2023-01-12T14:39:49.991Z,100140.91
2023-01-12T14:42:41.438Z,100134.28
2023-01-12T14:45:43.901Z,100133.75
2023-01-12T14:48:26.229Z,100130.56
2023-01-12T14:51:02.860Z,100129.19
2023-01-12T14:53:39.837Z,100123.44
2023-01-12T14:56:27.223Z,100097.66
2023-01-12T14:59:08.882Z,100097.19
2023-01-12T15:01:42.449Z,100126.13
2023-01-12T15:04:24.086Z,100119.31
2023-01-12T15:07:06.465Z,100102.94
2023-01-12T15:09:56.941Z,100109.09
2023-01-12T15:12:28.916Z,100117.75
2023-01-12T15:15:24.103Z,100107.03
2023-01-12T15:18:14.439Z,100099.78
2023-01-12T15:21:05.561Z,100089.75
2023-01-12T15:23:56.193Z,100098.38
2023-01-12T15:26:28.095Z,100096.22
2023-01-12T15:29:00.167Z,100101.44
2023-01-12T15:31:35.217Z,100118.50
2023-01-12T15:34:07.324Z,100102.00
2023-01-12T15:36:39.358Z,100110.22
2023-01-12T15:39:14.902Z,100141.41
2023-01-12T15:42:05.399Z,100124.91
2023-01-12T15:44:38.838Z,100125.00
2023-01-12T15:47:15.852Z,100114.00
2023-01-12T15:49:49.800Z,100109.50
2023-01-12T15:52:24.036Z,100137.34
2023-01-12T15:54:56.374Z,100119.88
2023-01-12T15:57:28.341Z,100146.06
2023-01-12T16:00:00.323Z,100133.59
2023-01-12T16:02:38.235Z,100136.47
2023-01-12T16:05:11.579Z,100126.47
2023-01-12T16:07:44.011Z,100132.22
2023-01-12T16:10:17.066Z,100102.69
2023-01-12T16:12:49.023Z,100147.16
2023-01-12T16:15:24.292Z,100134.47
2023-01-12T16:17:56.486Z,100127.13
2023-01-12T16:20:28.437Z,100132.28
2023-01-12T16:23:00.413Z,100119.41
2023-01-12T16:25:32.360Z,100099.50
2023-01-12T16:28:04.541Z,100113.66
2023-01-12T16:30:44.219Z,100127.72
2023-01-12T16:33:18.157Z,100126.19
2023-01-12T16:35:50.548Z,100121.44
2023-01-12T16:38:22.528Z,100111.44
2023-01-12T16:40:55.197Z,100109.53
2023-01-12T16:43:29.958Z,100098.94
2023-01-12T16:46:03.767Z,100125.75
2023-01-12T16:48:36.555Z,100093.19
2023-01-12T16:51:14.530Z,100119.16
2023-01-12T16:53:47.760Z,100102.47
2023-01-12T16:56:19.719Z,100116.91
2023-01-12T16:58:52.248Z,100114.56
2023-01-12T17:01:25.433Z,100105.75
2023-01-12T17:03:58.495Z,100106.16
2023-01-12T17:06:30.832Z,100110.47
2023-01-12T17:09:03.318Z,100096.94
2023-01-12T17:11:35.636Z,100100.41
2023-01-12T17:14:25.553Z,100115.53
2023-01-12T17:17:01.674Z,100105.41
2023-01-12T17:19:35.466Z,100103.75
2023-01-12T17:22:08.355Z,100091.09
2023-01-12T17:24:40.820Z,100098.72
2023-01-12T17:27:12.871Z,100105.53
2023-01-12T17:29:47.246Z,100086.41
2023-01-12T17:32:19.240Z,100063.63
2023-01-12T17:34:51.485Z,100088.38
2023-01-12T17:37:23.474Z,100068.78
2023-01-12T17:39:55.539Z,100094.94
2023-01-12T17:42:46.379Z,100070.66
2023-01-12T17:45:18.233Z,100090.66
2023-01-12T17:47:50.245Z,100077.31
2023-01-12T17:50:22.232Z,100080.88
2023-01-12T17:52:54.193Z,100061.75
2023-01-12T17:55:26.449Z,100042.53
2023-01-12T17:57:58.326Z,100077.56
2023-01-12T18:00:30.937Z,100076.72
2023-01-12T18:03:03.407Z,100044.19
2023-01-12T18:05:35.393Z,100064.91
2023-01-12T18:08:07.306Z,100069.75
2023-01-12T18:10:39.194Z,100033.91
2023-01-12T18:13:13.015Z,100036.78
2023-01-12T18:15:44.929Z,100048.34
2023-01-12T18:18:16.864Z,100050.94
2023-01-12T18:20:52.433Z,100017.28
2023-01-12T18:23:24.306Z,100010.63
2023-01-12T18:26:02.647Z,100056.53
2023-01-12T18:28:34.754Z,100043.22
2023-01-12T18:31:10.264Z,100062.25
2023-01-12T18:33:43.165Z,100001.53
2023-01-12T18:36:18.636Z,100014.53
2023-01-12T18:38:52.442Z,100069.16
2023-01-12T18:41:42.980Z,100058.41
2023-01-12T18:44:14.945Z,100058.97
2023-01-12T18:47:09.938Z,100051.00
2023-01-12T18:49:42.322Z,100039.25
2023-01-12T18:52:33.770Z,100049.03
2023-01-12T18:55:06.279Z,100048.56
2023-01-12T18:57:38.216Z,100050.84
2023-01-12T19:00:16.893Z,100013.63
2023-01-12T19:02:48.763Z,100010.63
2023-01-12T19:05:37.269Z,100015.78
2023-01-12T19:08:44.682Z,100026.56
2023-01-12T19:11:16.741Z,100017.56
2023-01-12T19:14:07.102Z,100017.66
2023-01-12T19:16:57.706Z,100004.72
2023-01-12T19:19:31.484Z,100021.97
2023-01-12T19:22:22.551Z,100014.47
2023-01-12T19:25:13.247Z,100026.94
2023-01-12T19:28:03.976Z,100034.53
2023-01-12T19:30:37.184Z,100028.41
2023-01-12T19:33:10.198Z,99987.78
2023-01-12T19:35:46.307Z,100005.94
2023-01-12T19:38:18.305Z,100024.06
2023-01-12T19:40:54.833Z,100031.06
2023-01-12T19:43:29.410Z,100011.06
2023-01-12T19:46:03.084Z,100031.94
2023-01-12T19:48:35.087Z,99997.91
2023-01-12T19:51:10.862Z,100016.91
2023-01-12T19:53:43.076Z,100002.16
2023-01-12T19:56:15.352Z,100025.44
2023-01-12T19:58:47.563Z,100012.75
2023-01-12T20:01:24.036Z,100021.34
2023-01-12T20:03:56.102Z,100007.22
2023-01-12T20:06:28.088Z,100019.75
2023-01-12T20:09:00.310Z,100019.00
2023-01-12T20:11:32.306Z,100004.25
2023-01-12T20:14:04.482Z,100018.47
2023-01-12T20:16:36.531Z,100025.34
2023-01-12T20:19:08.459Z,100014.22
2023-01-12T20:21:40.450Z,100021.88
2023-01-12T20:24:12.482Z,100011.66
2023-01-12T20:26:44.433Z,100006.81
2023-01-12T20:29:16.677Z,99984.97
2023-01-12T20:31:50.373Z,99996.78
2023-01-12T20:34:22.603Z,100003.50
2023-01-12T20:36:54.524Z,100017.94
2023-01-12T20:39:27.162Z,100001.13
2023-01-12T20:41:59.169Z,100010.31
2023-01-12T20:44:31.476Z,100008.63
2023-01-12T20:47:03.708Z,100014.50
2023-01-12T20:49:35.744Z,100002.13
2023-01-12T20:52:07.598Z,100013.91
2023-01-12T20:54:39.516Z,100025.03
2023-01-12T20:57:11.359Z,99996.44
2023-01-12T20:59:43.295Z,100009.75
2023-01-12T21:02:19.835Z,100005.13
2023-01-12T21:04:52.036Z,99958.25
2023-01-12T21:07:24.260Z,100009.69
2023-01-12T21:09:56.728Z,100008.22
2023-01-12T21:12:29.203Z,99974.25
2023-01-12T21:15:07.126Z,99952.38
2023-01-12T21:17:39.416Z,99947.50
2023-01-12T21:20:12.080Z,99975.38
2023-01-12T21:22:44.811Z,99992.91
2023-01-12T21:25:16.827Z,99987.47
2023-01-12T21:27:48.918Z,99983.44
2023-01-12T21:30:21.499Z,99988.28
2023-01-12T21:32:55.421Z,100006.00
2023-01-12T21:35:27.394Z,99978.53
2023-01-12T21:37:59.605Z,99981.56
2023-01-12T21:40:32.353Z,99992.31
2023-01-12T21:43:10.452Z,99959.78
2023-01-12T21:45:44.666Z,99958.13
2023-01-12T21:48:18.368Z,99989.16
2023-01-12T21:50:50.716Z,99986.56
2023-01-12T21:53:23.787Z,99997.66
2023-01-12T21:56:01.035Z,99973.13
2023-01-12T21:58:35.413Z,99984.44
2023-01-12T22:01:13.309Z,99928.66
2023-01-12T22:03:45.439Z,99963.44
2023-01-12T22:06:17.478Z,99964.06
2023-01-12T22:08:49.520Z,99968.97
2023-01-12T22:11:21.428Z,99969.19
2023-01-12T22:13:53.392Z,99978.56
2023-01-12T22:16:25.499Z,99967.38
2023-01-12T22:18:57.567Z,99965.97
2023-01-12T22:21:29.830Z,99979.47
2023-01-12T22:24:01.797Z,99950.69
2023-01-12T22:26:33.733Z,99963.16
2023-01-12T22:29:05.830Z,99963.59
2023-01-12T22:31:37.862Z,99955.81
2023-01-12T22:34:13.097Z,99951.03
2023-01-12T22:36:45.063Z,99946.56
2023-01-12T22:39:17.195Z,99938.03
2023-01-12T22:41:51.103Z,99946.03
2023-01-12T22:44:26.382Z,99954.28
2023-01-12T22:46:58.359Z,99943.31
2023-01-12T22:49:30.389Z,99941.63
2023-01-12T22:52:03.137Z,99953.19
2023-01-12T22:54:35.112Z,99936.34
2023-01-12T22:57:09.379Z,99887.31
2023-01-12T22:59:41.998Z,99927.13
2023-01-12T23:02:32.620Z,99927.78
2023-01-12T23:05:04.808Z,99942.00
2023-01-12T23:07:36.877Z,99934.59
2023-01-12T23:10:09.448Z,99912.03
2023-01-12T23:12:41.527Z,99931.94
2023-01-12T23:15:13.561Z,99937.34
2023-01-12T23:17:45.555Z,99921.63
2023-01-12T23:20:17.675Z,99939.06
2023-01-12T23:22:49.666Z,99940.81
2023-01-12T23:25:21.856Z,99929.41
2023-01-12T23:27:54.112Z,99936.06
2023-01-12T23:30:30.960Z,99937.88
2023-01-12T23:33:04.725Z,99919.59
2023-01-12T23:35:39.749Z,99922.75
2023-01-12T23:38:16.645Z,99947.03
2023-01-12T23:40:48.584Z,99907.97
2023-01-12T23:43:21.350Z,99899.81
2023-01-12T23:45:53.459Z,99895.66
2023-01-12T23:48:26.582Z,99936.53
2023-01-12T23:50:59.882Z,99949.81
2023-01-12T23:53:31.989Z,99934.69
2023-01-12T23:56:09.659Z,99926.56
2023-01-12T23:58:42.538Z,99915.00
